sensor_id;sensor_type;location;lat;lon;timestamp;P1;durP1;ratioP1;P2;durP2;ratioP2
61903;SDS011;47857;52.270;6.804;2023-04-22T00:00:37;9.90;;;8.13;;
61903;SDS011;47857;52.270;6.804;2023-04-22T00:03:02;12.82;;;7.15;;
61903;SDS011;47857;52.270;6.804;2023-04-22T00:05:28;9.70;;;7.15;;
61903;SDS011;47857;52.270;6.804;2023-04-22T00:07:54;10.95;;;7.57;;
61903;SDS011;47857;52.270;6.804;2023-04-22T00:10:19;9.73;;;7.60;;
61903;SDS011;47857;52.270;6.804;2023-04-22T00:12:45;11.63;;;8.45;;
61903;SDS011;47857;52.270;6.804;2023-04-22T00:15:10;10.68;;;8.13;;
61903;SDS011;47857;52.270;6.804;2023-04-22T00:17:36;10.63;;;8.50;;
61903;SDS011;47857;52.270;6.804;2023-04-22T00:20:02;11.55;;;8.65;;
61903;SDS011;47857;52.270;6.804;2023-04-22T00:22:28;11.30;;;8.80;;
61903;SDS011;47857;52.270;6.804;2023-04-22T00:24:53;9.43;;;8.32;;
61903;SDS011;47857;52.270;6.804;2023-04-22T00:27:19;10.40;;;8.27;;
61903;SDS011;47857;52.270;6.804;2023-04-22T00:29:44;12.10;;;8.60;;
61903;SDS011;47857;52.270;6.804;2023-04-22T00:32:10;10.57;;;8.45;;
61903;SDS011;47857;52.270;6.804;2023-04-22T00:34:35;11.60;;;8.50;;
61903;SDS011;47857;52.270;6.804;2023-04-22T00:37:01;10.15;;;8.20;;
61903;SDS011;47857;52.270;6.804;2023-04-22T00:39:26;11.00;;;8.18;;
61903;SDS011;47857;52.270;6.804;2023-04-22T00:41:52;11.07;;;8.30;;
61903;SDS011;47857;52.270;6.804;2023-04-22T00:44:18;11.30;;;8.25;;
61903;SDS011;47857;52.270;6.804;2023-04-22T00:46:43;10.80;;;8.90;;
61903;SDS011;47857;52.270;6.804;2023-04-22T00:49:10;11.68;;;8.18;;
61903;SDS011;47857;52.270;6.804;2023-04-22T00:51:35;12.52;;;8.55;;
61903;SDS011;47857;52.270;6.804;2023-04-22T00:54:01;11.45;;;9.00;;
61903;SDS011;47857;52.270;6.804;2023-04-22T00:56:27;11.32;;;9.13;;
61903;SDS011;47857;52.270;6.804;2023-04-22T00:58:54;9.85;;;8.35;;
61903;SDS011;47857;52.270;6.804;2023-04-22T01:01:20;10.10;;;8.27;;
61903;SDS011;47857;52.270;6.804;2023-04-22T01:03:47;10.13;;;8.77;;
61903;SDS011;47857;52.270;6.804;2023-04-22T01:06:14;10.35;;;8.82;;
61903;SDS011;47857;52.270;6.804;2023-04-22T01:08:41;11.35;;;8.98;;
61903;SDS011;47857;52.270;6.804;2023-04-22T01:11:07;11.82;;;9.70;;
61903;SDS011;47857;52.270;6.804;2023-04-22T01:13:32;12.85;;;9.70;;
61903;SDS011;47857;52.270;6.804;2023-04-22T01:16:00;12.10;;;9.82;;
61903;SDS011;47857;52.270;6.804;2023-04-22T01:18:26;13.95;;;10.65;;
61903;SDS011;47857;52.270;6.804;2023-04-22T01:20:54;12.02;;;9.90;;
61903;SDS011;47857;52.270;6.804;2023-04-22T01:23:20;13.20;;;10.98;;
61903;SDS011;47857;52.270;6.804;2023-04-22T01:25:46;14.85;;;11.15;;
61903;SDS011;47857;52.270;6.804;2023-04-22T01:28:12;12.13;;;9.73;;
61903;SDS011;47857;52.270;6.804;2023-04-22T01:30:39;11.80;;;10.00;;
61903;SDS011;47857;52.270;6.804;2023-04-22T01:33:06;12.90;;;10.38;;
61903;SDS011;47857;52.270;6.804;2023-04-22T01:35:34;13.73;;;10.40;;
61903;SDS011;47857;52.270;6.804;2023-04-22T01:38:07;13.20;;;10.55;;
61903;SDS011;47857;52.270;6.804;2023-04-22T01:40:34;12.57;;;11.00;;
61903;SDS011;47857;52.270;6.804;2023-04-22T01:43:00;13.05;;;11.48;;
61903;SDS011;47857;52.270;6.804;2023-04-22T01:45:27;14.52;;;11.55;;
61903;SDS011;47857;52.270;6.804;2023-04-22T01:47:53;15.82;;;12.05;;
61903;SDS011;47857;52.270;6.804;2023-04-22T01:50:19;17.25;;;12.00;;
61903;SDS011;47857;52.270;6.804;2023-04-22T01:52:45;14.05;;;12.05;;
61903;SDS011;47857;52.270;6.804;2023-04-22T01:55:11;13.50;;;11.25;;
61903;SDS011;47857;52.270;6.804;2023-04-22T01:57:36;16.02;;;12.40;;
61903;SDS011;47857;52.270;6.804;2023-04-22T02:00:02;14.48;;;11.77;;
61903;SDS011;47857;52.270;6.804;2023-04-22T02:02:37;16.25;;;12.70;;
61903;SDS011;47857;52.270;6.804;2023-04-22T02:05:04;14.02;;;11.50;;
61903;SDS011;47857;52.270;6.804;2023-04-22T02:07:30;13.30;;;11.40;;
61903;SDS011;47857;52.270;6.804;2023-04-22T02:09:56;16.08;;;12.75;;
61903;SDS011;47857;52.270;6.804;2023-04-22T02:12:21;14.88;;;11.80;;
61903;SDS011;47857;52.270;6.804;2023-04-22T02:14:47;15.40;;;12.02;;
61903;SDS011;47857;52.270;6.804;2023-04-22T02:17:12;14.38;;;12.02;;
61903;SDS011;47857;52.270;6.804;2023-04-22T02:19:38;16.60;;;12.95;;
61903;SDS011;47857;52.270;6.804;2023-04-22T02:22:03;14.85;;;12.43;;
61903;SDS011;47857;52.270;6.804;2023-04-22T02:24:29;16.67;;;12.93;;
61903;SDS011;47857;52.270;6.804;2023-04-22T02:26:56;16.92;;;13.80;;
61903;SDS011;47857;52.270;6.804;2023-04-22T02:29:23;19.60;;;13.32;;
61903;SDS011;47857;52.270;6.804;2023-04-22T02:31:48;16.23;;;11.68;;
61903;SDS011;47857;52.270;6.804;2023-04-22T02:34:14;14.10;;;11.90;;
61903;SDS011;47857;52.270;6.804;2023-04-22T02:36:40;14.07;;;12.25;;
61903;SDS011;47857;52.270;6.804;2023-04-22T02:39:06;15.00;;;12.73;;
61903;SDS011;47857;52.270;6.804;2023-04-22T02:41:33;14.02;;;12.20;;
61903;SDS011;47857;52.270;6.804;2023-04-22T02:43:59;14.15;;;11.73;;
61903;SDS011;47857;52.270;6.804;2023-04-22T02:46:25;13.90;;;11.95;;
61903;SDS011;47857;52.270;6.804;2023-04-22T02:48:51;13.93;;;12.40;;
61903;SDS011;47857;52.270;6.804;2023-04-22T02:51:17;16.42;;;13.02;;
61903;SDS011;47857;52.270;6.804;2023-04-22T02:53:42;14.35;;;12.07;;
61903;SDS011;47857;52.270;6.804;2023-04-22T02:56:08;15.65;;;12.48;;
61903;SDS011;47857;52.270;6.804;2023-04-22T02:58:34;15.80;;;12.82;;
61903;SDS011;47857;52.270;6.804;2023-04-22T03:00:59;14.38;;;12.18;;
61903;SDS011;47857;52.270;6.804;2023-04-22T03:03:25;13.20;;;11.45;;
61903;SDS011;47857;52.270;6.804;2023-04-22T03:05:51;15.07;;;12.23;;
61903;SDS011;47857;52.270;6.804;2023-04-22T03:08:17;13.55;;;12.10;;
61903;SDS011;47857;52.270;6.804;2023-04-22T03:10:43;12.98;;;11.68;;
61903;SDS011;47857;52.270;6.804;2023-04-22T03:13:09;14.63;;;13.07;;
61903;SDS011;47857;52.270;6.804;2023-04-22T03:15:35;17.88;;;13.88;;
61903;SDS011;47857;52.270;6.804;2023-04-22T03:18:00;16.77;;;14.07;;
61903;SDS011;47857;52.270;6.804;2023-04-22T03:20:27;16.77;;;13.70;;
61903;SDS011;47857;52.270;6.804;2023-04-22T03:22:52;17.45;;;14.40;;
61903;SDS011;47857;52.270;6.804;2023-04-22T03:25:18;16.27;;;14.18;;
61903;SDS011;47857;52.270;6.804;2023-04-22T03:27:50;17.00;;;14.35;;
61903;SDS011;47857;52.270;6.804;2023-04-22T03:30:16;16.52;;;14.13;;
61903;SDS011;47857;52.270;6.804;2023-04-22T03:32:42;16.80;;;15.00;;
61903;SDS011;47857;52.270;6.804;2023-04-22T03:35:15;17.35;;;15.55;;
61903;SDS011;47857;52.270;6.804;2023-04-22T03:37:42;18.00;;;14.88;;
61903;SDS011;47857;52.270;6.804;2023-04-22T03:40:12;17.65;;;14.88;;
61903;SDS011;47857;52.270;6.804;2023-04-22T03:42:37;23.83;;;17.15;;
61903;SDS011;47857;52.270;6.804;2023-04-22T03:45:03;22.20;;;17.25;;
61903;SDS011;47857;52.270;6.804;2023-04-22T03:47:34;17.73;;;15.68;;
61903;SDS011;47857;52.270;6.804;2023-04-22T03:50:07;20.20;;;16.60;;
61903;SDS011;47857;52.270;6.804;2023-04-22T03:52:34;20.02;;;16.05;;
61903;SDS011;47857;52.270;6.804;2023-04-22T03:55:02;24.02;;;18.08;;
61903;SDS011;47857;52.270;6.804;2023-04-22T03:57:28;20.55;;;16.77;;
61903;SDS011;47857;52.270;6.804;2023-04-22T03:59:54;20.77;;;17.42;;
61903;SDS011;47857;52.270;6.804;2023-04-22T04:02:19;20.90;;;17.27;;
61903;SDS011;47857;52.270;6.804;2023-04-22T04:04:45;19.20;;;16.40;;
61903;SDS011;47857;52.270;6.804;2023-04-22T04:07:11;18.40;;;15.57;;
61903;SDS011;47857;52.270;6.804;2023-04-22T04:09:37;21.63;;;17.35;;
61903;SDS011;47857;52.270;6.804;2023-04-22T04:12:03;19.45;;;16.27;;
61903;SDS011;47857;52.270;6.804;2023-04-22T04:14:33;19.48;;;16.38;;
61903;SDS011;47857;52.270;6.804;2023-04-22T04:17:00;21.27;;;18.55;;
61903;SDS011;47857;52.270;6.804;2023-04-22T04:19:30;19.65;;;16.80;;
61903;SDS011;47857;52.270;6.804;2023-04-22T04:21:56;20.58;;;16.42;;
61903;SDS011;47857;52.270;6.804;2023-04-22T04:24:23;23.83;;;17.65;;
61903;SDS011;47857;52.270;6.804;2023-04-22T04:26:53;23.20;;;18.58;;
61903;SDS011;47857;52.270;6.804;2023-04-22T04:29:25;22.50;;;17.92;;
61903;SDS011;47857;52.270;6.804;2023-04-22T04:32:11;21.65;;;17.75;;
61903;SDS011;47857;52.270;6.804;2023-04-22T04:34:37;22.23;;;18.67;;
61903;SDS011;47857;52.270;6.804;2023-04-22T04:37:04;19.75;;;17.60;;
61903;SDS011;47857;52.270;6.804;2023-04-22T04:39:39;22.48;;;18.00;;
61903;SDS011;47857;52.270;6.804;2023-04-22T04:42:06;20.27;;;17.85;;
61903;SDS011;47857;52.270;6.804;2023-04-22T04:44:40;20.95;;;17.08;;
61903;SDS011;47857;52.270;6.804;2023-04-22T04:47:06;21.17;;;18.27;;
61903;SDS011;47857;52.270;6.804;2023-04-22T04:49:32;24.17;;;18.08;;
61903;SDS011;47857;52.270;6.804;2023-04-22T04:52:03;18.85;;;16.70;;
61903;SDS011;47857;52.270;6.804;2023-04-22T04:54:29;20.65;;;17.80;;
61903;SDS011;47857;52.270;6.804;2023-04-22T04:56:58;19.83;;;17.35;;
61903;SDS011;47857;52.270;6.804;2023-04-22T04:59:23;19.35;;;16.35;;
61903;SDS011;47857;52.270;6.804;2023-04-22T05:01:49;21.17;;;16.98;;
61903;SDS011;47857;52.270;6.804;2023-04-22T05:04:15;21.27;;;16.67;;
61903;SDS011;47857;52.270;6.804;2023-04-22T05:06:42;20.98;;;17.15;;
61903;SDS011;47857;52.270;6.804;2023-04-22T05:09:08;20.95;;;17.30;;
61903;SDS011;47857;52.270;6.804;2023-04-22T05:11:35;21.80;;;18.10;;
61903;SDS011;47857;52.270;6.804;2023-04-22T05:14:06;21.42;;;17.13;;
61903;SDS011;47857;52.270;6.804;2023-04-22T05:16:36;18.67;;;16.23;;
61903;SDS011;47857;52.270;6.804;2023-04-22T05:19:02;20.40;;;17.30;;
61903;SDS011;47857;52.270;6.804;2023-04-22T05:21:28;19.42;;;16.55;;
61903;SDS011;47857;52.270;6.804;2023-04-22T05:23:54;20.33;;;15.75;;
61903;SDS011;47857;52.270;6.804;2023-04-22T05:26:20;23.27;;;16.30;;
61903;SDS011;47857;52.270;6.804;2023-04-22T05:28:48;20.70;;;17.60;;
61903;SDS011;47857;52.270;6.804;2023-04-22T05:31:15;21.08;;;16.52;;
61903;SDS011;47857;52.270;6.804;2023-04-22T05:33:41;20.30;;;16.38;;
61903;SDS011;47857;52.270;6.804;2023-04-22T05:36:06;20.63;;;17.08;;
61903;SDS011;47857;52.270;6.804;2023-04-22T05:38:33;18.75;;;16.15;;
61903;SDS011;47857;52.270;6.804;2023-04-22T05:40:59;20.48;;;16.33;;
61903;SDS011;47857;52.270;6.804;2023-04-22T05:43:24;18.25;;;15.35;;
61903;SDS011;47857;52.270;6.804;2023-04-22T05:46:00;21.00;;;16.05;;
61903;SDS011;47857;52.270;6.804;2023-04-22T05:48:25;29.70;;;23.20;;
61903;SDS011;47857;52.270;6.804;2023-04-22T05:51:01;27.38;;;20.40;;
61903;SDS011;47857;52.270;6.804;2023-04-22T05:53:28;30.45;;;22.65;;
61903;SDS011;47857;52.270;6.804;2023-04-22T05:55:54;42.25;;;29.70;;
61903;SDS011;47857;52.270;6.804;2023-04-22T05:58:21;31.80;;;22.83;;
61903;SDS011;47857;52.270;6.804;2023-04-22T06:00:51;23.67;;;19.30;;
61903;SDS011;47857;52.270;6.804;2023-04-22T06:03:36;22.83;;;16.17;;
61903;SDS011;47857;52.270;6.804;2023-04-22T06:06:02;19.35;;;15.65;;
61903;SDS011;47857;52.270;6.804;2023-04-22T06:08:28;20.85;;;14.88;;
61903;SDS011;47857;52.270;6.804;2023-04-22T06:10:55;18.30;;;14.45;;
61903;SDS011;47857;52.270;6.804;2023-04-22T06:13:22;18.38;;;14.48;;
61903;SDS011;47857;52.270;6.804;2023-04-22T06:15:48;19.20;;;15.40;;
61903;SDS011;47857;52.270;6.804;2023-04-22T06:18:13;18.27;;;14.05;;
61903;SDS011;47857;52.270;6.804;2023-04-22T06:20:39;17.80;;;13.10;;
61903;SDS011;47857;52.270;6.804;2023-04-22T06:23:05;14.57;;;12.55;;
61903;SDS011;47857;52.270;6.804;2023-04-22T06:25:31;18.95;;;13.85;;
61903;SDS011;47857;52.270;6.804;2023-04-22T06:27:57;18.20;;;14.82;;
61903;SDS011;47857;52.270;6.804;2023-04-22T06:30:23;16.15;;;13.90;;
61903;SDS011;47857;52.270;6.804;2023-04-22T06:32:50;18.15;;;12.90;;
61903;SDS011;47857;52.270;6.804;2023-04-22T06:35:16;16.27;;;13.25;;
61903;SDS011;47857;52.270;6.804;2023-04-22T06:37:41;18.10;;;13.40;;
61903;SDS011;47857;52.270;6.804;2023-04-22T06:40:08;14.77;;;12.70;;
61903;SDS011;47857;52.270;6.804;2023-04-22T06:42:53;15.60;;;12.98;;
61903;SDS011;47857;52.270;6.804;2023-04-22T06:48:25;15.35;;;12.93;;
61903;SDS011;47857;52.270;6.804;2023-04-22T06:51:27;14.65;;;12.75;;
61903;SDS011;47857;52.270;6.804;2023-04-22T06:53:54;15.27;;;12.90;;
61903;SDS011;47857;52.270;6.804;2023-04-22T06:56:20;14.50;;;12.40;;
61903;SDS011;47857;52.270;6.804;2023-04-22T06:58:45;15.05;;;13.35;;
61903;SDS011;47857;52.270;6.804;2023-04-22T07:01:11;16.15;;;12.25;;
61903;SDS011;47857;52.270;6.804;2023-04-22T07:03:38;14.48;;;11.40;;
61903;SDS011;47857;52.270;6.804;2023-04-22T07:06:08;14.77;;;11.98;;
61903;SDS011;47857;52.270;6.804;2023-04-22T07:08:33;13.63;;;11.27;;
61903;SDS011;47857;52.270;6.804;2023-04-22T07:10:59;12.70;;;10.60;;
61903;SDS011;47857;52.270;6.804;2023-04-22T07:13:37;12.40;;;11.10;;
61903;SDS011;47857;52.270;6.804;2023-04-22T07:16:03;13.60;;;10.55;;
61903;SDS011;47857;52.270;6.804;2023-04-22T07:18:28;11.93;;;10.32;;
61903;SDS011;47857;52.270;6.804;2023-04-22T07:20:54;10.82;;;9.25;;
61903;SDS011;47857;52.270;6.804;2023-04-22T07:23:20;13.65;;;10.50;;
61903;SDS011;47857;52.270;6.804;2023-04-22T07:25:45;11.65;;;9.77;;
61903;SDS011;47857;52.270;6.804;2023-04-22T07:28:11;11.27;;;9.60;;
61903;SDS011;47857;52.270;6.804;2023-04-22T07:30:36;11.73;;;9.77;;
61903;SDS011;47857;52.270;6.804;2023-04-22T07:33:02;12.40;;;9.50;;
61903;SDS011;47857;52.270;6.804;2023-04-22T07:35:27;11.73;;;9.57;;
61903;SDS011;47857;52.270;6.804;2023-04-22T07:37:54;12.05;;;9.50;;
61903;SDS011;47857;52.270;6.804;2023-04-22T07:40:19;11.10;;;9.77;;
61903;SDS011;47857;52.270;6.804;2023-04-22T07:42:45;11.10;;;8.90;;
61903;SDS011;47857;52.270;6.804;2023-04-22T07:45:10;10.10;;;8.70;;
61903;SDS011;47857;52.270;6.804;2023-04-22T07:47:36;9.00;;;7.88;;
61903;SDS011;47857;52.270;6.804;2023-04-22T07:50:02;12.68;;;8.70;;
61903;SDS011;47857;52.270;6.804;2023-04-22T07:52:27;10.13;;;7.93;;
61903;SDS011;47857;52.270;6.804;2023-04-22T07:54:54;9.40;;;7.13;;
61903;SDS011;47857;52.270;6.804;2023-04-22T07:57:20;9.13;;;7.85;;
61903;SDS011;47857;52.270;6.804;2023-04-22T07:59:50;9.75;;;7.05;;
61903;SDS011;47857;52.270;6.804;2023-04-22T08:02:15;8.55;;;6.85;;
61903;SDS011;47857;52.270;6.804;2023-04-22T08:04:41;7.72;;;6.22;;
61903;SDS011;47857;52.270;6.804;2023-04-22T08:07:07;7.95;;;6.13;;
61903;SDS011;47857;52.270;6.804;2023-04-22T08:09:32;7.97;;;6.25;;
61903;SDS011;47857;52.270;6.804;2023-04-22T08:11:58;7.15;;;5.70;;
61903;SDS011;47857;52.270;6.804;2023-04-22T08:14:23;9.63;;;6.07;;
61903;SDS011;47857;52.270;6.804;2023-04-22T08:16:52;7.00;;;5.78;;
61903;SDS011;47857;52.270;6.804;2023-04-22T08:19:18;8.90;;;5.82;;
61903;SDS011;47857;52.270;6.804;2023-04-22T08:21:45;8.00;;;5.78;;
61903;SDS011;47857;52.270;6.804;2023-04-22T08:24:11;6.85;;;5.45;;
61903;SDS011;47857;52.270;6.804;2023-04-22T08:26:36;8.02;;;4.38;;
61903;SDS011;47857;52.270;6.804;2023-04-22T08:29:03;7.20;;;4.85;;
61903;SDS011;47857;52.270;6.804;2023-04-22T08:31:29;6.35;;;5.05;;
61903;SDS011;47857;52.270;6.804;2023-04-22T08:33:55;6.57;;;5.20;;
61903;SDS011;47857;52.270;6.804;2023-04-22T08:36:20;6.63;;;4.90;;
61903;SDS011;47857;52.270;6.804;2023-04-22T08:38:48;6.53;;;5.13;;
61903;SDS011;47857;52.270;6.804;2023-04-22T08:41:14;5.70;;;5.10;;
61903;SDS011;47857;52.270;6.804;2023-04-22T08:43:40;6.63;;;5.10;;
61903;SDS011;47857;52.270;6.804;2023-04-22T08:46:05;6.93;;;5.20;;
61903;SDS011;47857;52.270;6.804;2023-04-22T08:48:31;7.10;;;5.20;;
61903;SDS011;47857;52.270;6.804;2023-04-22T08:50:57;8.30;;;5.10;;
61903;SDS011;47857;52.270;6.804;2023-04-22T08:53:22;6.40;;;4.88;;
61903;SDS011;47857;52.270;6.804;2023-04-22T08:55:48;8.70;;;5.15;;
61903;SDS011;47857;52.270;6.804;2023-04-22T08:58:14;6.25;;;4.70;;
61903;SDS011;47857;52.270;6.804;2023-04-22T09:00:43;7.10;;;4.93;;
61903;SDS011;47857;52.270;6.804;2023-04-22T09:03:09;6.00;;;4.93;;
61903;SDS011;47857;52.270;6.804;2023-04-22T09:05:36;5.78;;;4.70;;
61903;SDS011;47857;52.270;6.804;2023-04-22T09:08:03;8.52;;;4.85;;
61903;SDS011;47857;52.270;6.804;2023-04-22T09:10:29;9.55;;;4.95;;
61903;SDS011;47857;52.270;6.804;2023-04-22T09:12:55;5.25;;;4.75;;
61903;SDS011;47857;52.270;6.804;2023-04-22T09:15:21;8.48;;;4.60;;
61903;SDS011;47857;52.270;6.804;2023-04-22T09:17:49;7.13;;;4.68;;
61903;SDS011;47857;52.270;6.804;2023-04-22T09:20:15;5.55;;;4.53;;
61903;SDS011;47857;52.270;6.804;2023-04-22T09:22:43;7.00;;;4.30;;
61903;SDS011;47857;52.270;6.804;2023-04-22T09:25:19;7.47;;;4.25;;
61903;SDS011;47857;52.270;6.804;2023-04-22T09:27:49;9.30;;;4.43;;
61903;SDS011;47857;52.270;6.804;2023-04-22T09:30:16;6.00;;;4.97;;
61903;SDS011;47857;52.270;6.804;2023-04-22T09:32:57;10.38;;;4.50;;
61903;SDS011;47857;52.270;6.804;2023-04-22T09:35:27;6.32;;;4.50;;
61903;SDS011;47857;52.270;6.804;2023-04-22T09:37:58;10.35;;;4.63;;
61903;SDS011;47857;52.270;6.804;2023-04-22T09:40:25;9.13;;;4.72;;
61903;SDS011;47857;52.270;6.804;2023-04-22T09:42:53;6.85;;;4.80;;
61903;SDS011;47857;52.270;6.804;2023-04-22T09:45:32;7.55;;;4.80;;
61903;SDS011;47857;52.270;6.804;2023-04-22T09:48:01;7.07;;;5.13;;
61903;SDS011;47857;52.270;6.804;2023-04-22T09:50:34;6.93;;;4.68;;
61903;SDS011;47857;52.270;6.804;2023-04-22T09:53:06;7.05;;;5.20;;
61903;SDS011;47857;52.270;6.804;2023-04-22T09:55:34;7.50;;;5.60;;
61903;SDS011;47857;52.270;6.804;2023-04-22T09:58:06;8.43;;;6.57;;
61903;SDS011;47857;52.270;6.804;2023-04-22T10:00:34;7.22;;;4.80;;
61903;SDS011;47857;52.270;6.804;2023-04-22T10:03:03;8.40;;;4.75;;
61903;SDS011;47857;52.270;6.804;2023-04-22T10:05:29;7.30;;;4.55;;
61903;SDS011;47857;52.270;6.804;2023-04-22T10:07:55;8.15;;;4.57;;
61903;SDS011;47857;52.270;6.804;2023-04-22T10:10:20;7.72;;;4.57;;
61903;SDS011;47857;52.270;6.804;2023-04-22T10:12:46;7.85;;;4.45;;
61903;SDS011;47857;52.270;6.804;2023-04-22T10:15:13;7.50;;;5.28;;
61903;SDS011;47857;52.270;6.804;2023-04-22T10:17:38;8.15;;;5.10;;
61903;SDS011;47857;52.270;6.804;2023-04-22T10:20:06;6.40;;;4.93;;
61903;SDS011;47857;52.270;6.804;2023-04-22T10:22:38;7.70;;;5.00;;
61903;SDS011;47857;52.270;6.804;2023-04-22T10:25:04;5.63;;;4.40;;
61903;SDS011;47857;52.270;6.804;2023-04-22T10:27:35;7.10;;;4.10;;
61903;SDS011;47857;52.270;6.804;2023-04-22T10:30:03;6.85;;;4.28;;
61903;SDS011;47857;52.270;6.804;2023-04-22T10:32:28;7.28;;;4.40;;
61903;SDS011;47857;52.270;6.804;2023-04-22T10:35:11;8.45;;;6.22;;
61903;SDS011;47857;52.270;6.804;2023-04-22T10:37:42;12.75;;;7.10;;
61903;SDS011;47857;52.270;6.804;2023-04-22T10:40:16;10.40;;;6.55;;
61903;SDS011;47857;52.270;6.804;2023-04-22T10:42:45;10.80;;;7.50;;
61903;SDS011;47857;52.270;6.804;2023-04-22T10:45:13;10.05;;;6.13;;
61903;SDS011;47857;52.270;6.804;2023-04-22T10:47:39;10.48;;;7.80;;
61903;SDS011;47857;52.270;6.804;2023-04-22T10:55:59;5.55;;;4.35;;
61903;SDS011;47857;52.270;6.804;2023-04-22T10:58:27;5.88;;;4.10;;
61903;SDS011;47857;52.270;6.804;2023-04-22T11:00:52;7.40;;;4.22;;
61903;SDS011;47857;52.270;6.804;2023-04-22T11:03:25;5.82;;;4.25;;
61903;SDS011;47857;52.270;6.804;2023-04-22T11:06:11;5.82;;;4.03;;
61903;SDS011;47857;52.270;6.804;2023-04-22T11:08:47;5.05;;;4.22;;
61903;SDS011;47857;52.270;6.804;2023-04-22T11:11:14;6.93;;;4.45;;
61903;SDS011;47857;52.270;6.804;2023-04-22T11:13:41;6.03;;;4.20;;
61903;SDS011;47857;52.270;6.804;2023-04-22T11:16:08;5.28;;;4.20;;
61903;SDS011;47857;52.270;6.804;2023-04-22T11:18:34;5.15;;;4.10;;
61903;SDS011;47857;52.270;6.804;2023-04-22T11:21:06;9.57;;;4.50;;
61903;SDS011;47857;52.270;6.804;2023-04-22T11:23:33;6.10;;;4.30;;
61903;SDS011;47857;52.270;6.804;2023-04-22T11:26:00;4.78;;;4.00;;
61903;SDS011;47857;52.270;6.804;2023-04-22T11:28:26;8.52;;;4.63;;
61903;SDS011;47857;52.270;6.804;2023-04-22T11:30:52;8.70;;;4.40;;
61903;SDS011;47857;52.270;6.804;2023-04-22T11:33:18;9.35;;;4.65;;
61903;SDS011;47857;52.270;6.804;2023-04-22T11:35:43;8.68;;;4.15;;
61903;SDS011;47857;52.270;6.804;2023-04-22T11:38:09;8.80;;;3.80;;
61903;SDS011;47857;52.270;6.804;2023-04-22T11:40:36;4.75;;;3.92;;
61903;SDS011;47857;52.270;6.804;2023-04-22T11:43:03;4.82;;;4.15;;
61903;SDS011;47857;52.270;6.804;2023-04-22T11:45:30;6.65;;;4.10;;
61903;SDS011;47857;52.270;6.804;2023-04-22T11:47:57;5.82;;;4.00;;
61903;SDS011;47857;52.270;6.804;2023-04-22T11:50:23;7.88;;;4.10;;
61903;SDS011;47857;52.270;6.804;2023-04-22T11:55:29;5.93;;;3.70;;
61903;SDS011;47857;52.270;6.804;2023-04-22T12:00:39;6.03;;;3.92;;
61903;SDS011;47857;52.270;6.804;2023-04-22T12:03:11;7.15;;;3.70;;
61903;SDS011;47857;52.270;6.804;2023-04-22T12:05:39;5.25;;;3.40;;
61903;SDS011;47857;52.270;6.804;2023-04-22T12:10:47;5.65;;;3.50;;
61903;SDS011;47857;52.270;6.804;2023-04-22T12:16:03;5.22;;;3.60;;
61903;SDS011;47857;52.270;6.804;2023-04-22T12:18:30;7.82;;;3.88;;
61903;SDS011;47857;52.270;6.804;2023-04-22T12:23:28;5.30;;;3.72;;
61903;SDS011;47857;52.270;6.804;2023-04-22T12:25:54;4.43;;;3.30;;
61903;SDS011;47857;52.270;6.804;2023-04-22T12:28:19;4.25;;;3.47;;
61903;SDS011;47857;52.270;6.804;2023-04-22T12:30:45;5.65;;;3.38;;
61903;SDS011;47857;52.270;6.804;2023-04-22T12:33:11;6.63;;;3.60;;
61903;SDS011;47857;52.270;6.804;2023-04-22T12:35:36;12.98;;;3.60;;
61903;SDS011;47857;52.270;6.804;2023-04-22T12:38:02;6.85;;;3.90;;
61903;SDS011;47857;52.270;6.804;2023-04-22T12:40:27;6.38;;;4.10;;
61903;SDS011;47857;52.270;6.804;2023-04-22T12:42:53;6.90;;;4.18;;
61903;SDS011;47857;52.270;6.804;2023-04-22T12:45:18;7.57;;;4.10;;
61903;SDS011;47857;52.270;6.804;2023-04-22T12:47:44;6.88;;;4.13;;
61903;SDS011;47857;52.270;6.804;2023-04-22T12:50:11;6.28;;;3.85;;
61903;SDS011;47857;52.270;6.804;2023-04-22T12:52:36;8.95;;;4.13;;
61903;SDS011;47857;52.270;6.804;2023-04-22T12:55:02;7.80;;;4.43;;
61903;SDS011;47857;52.270;6.804;2023-04-22T12:57:28;8.93;;;4.68;;
61903;SDS011;47857;52.270;6.804;2023-04-22T12:59:54;6.20;;;4.40;;
61903;SDS011;47857;52.270;6.804;2023-04-22T13:02:20;6.63;;;4.68;;
61903;SDS011;47857;52.270;6.804;2023-04-22T13:04:45;8.95;;;5.32;;
61903;SDS011;47857;52.270;6.804;2023-04-22T13:07:11;7.25;;;5.22;;
61903;SDS011;47857;52.270;6.804;2023-04-22T13:09:36;9.25;;;5.65;;
61903;SDS011;47857;52.270;6.804;2023-04-22T13:12:02;8.45;;;5.50;;
61903;SDS011;47857;52.270;6.804;2023-04-22T13:14:27;8.68;;;5.60;;
61903;SDS011;47857;52.270;6.804;2023-04-22T13:16:53;7.60;;;4.95;;
61903;SDS011;47857;52.270;6.804;2023-04-22T13:19:19;9.35;;;4.95;;
61903;SDS011;47857;52.270;6.804;2023-04-22T13:21:44;8.57;;;4.93;;
61903;SDS011;47857;52.270;6.804;2023-04-22T13:24:10;9.70;;;5.13;;
61903;SDS011;47857;52.270;6.804;2023-04-22T13:26:36;6.10;;;4.32;;
61903;SDS011;47857;52.270;6.804;2023-04-22T13:29:03;7.05;;;5.07;;
61903;SDS011;47857;52.270;6.804;2023-04-22T13:31:35;9.27;;;5.20;;
61903;SDS011;47857;52.270;6.804;2023-04-22T13:34:00;9.82;;;5.00;;
61903;SDS011;47857;52.270;6.804;2023-04-22T13:36:26;8.52;;;5.07;;
61903;SDS011;47857;52.270;6.804;2023-04-22T13:38:51;8.80;;;5.43;;
61903;SDS011;47857;52.270;6.804;2023-04-22T13:41:17;11.25;;;7.97;;
61903;SDS011;47857;52.270;6.804;2023-04-22T13:43:42;16.55;;;11.13;;
61903;SDS011;47857;52.270;6.804;2023-04-22T13:46:08;14.48;;;9.60;;
61903;SDS011;47857;52.270;6.804;2023-04-22T13:48:33;12.07;;;8.52;;
61903;SDS011;47857;52.270;6.804;2023-04-22T13:50:59;15.63;;;8.05;;
61903;SDS011;47857;52.270;6.804;2023-04-22T13:53:25;10.73;;;7.10;;
61903;SDS011;47857;52.270;6.804;2023-04-22T13:55:50;9.48;;;6.45;;
61903;SDS011;47857;52.270;6.804;2023-04-22T13:58:16;11.77;;;8.43;;
61903;SDS011;47857;52.270;6.804;2023-04-22T14:00:41;10.27;;;7.00;;
61903;SDS011;47857;52.270;6.804;2023-04-22T14:03:07;8.85;;;5.53;;
61903;SDS011;47857;52.270;6.804;2023-04-22T14:05:33;9.43;;;5.57;;
61903;SDS011;47857;52.270;6.804;2023-04-22T14:07:58;9.48;;;5.80;;
61903;SDS011;47857;52.270;6.804;2023-04-22T14:10:24;9.82;;;6.32;;
61903;SDS011;47857;52.270;6.804;2023-04-22T14:12:49;11.85;;;6.10;;
61903;SDS011;47857;52.270;6.804;2023-04-22T14:15:15;10.32;;;6.28;;
61903;SDS011;47857;52.270;6.804;2023-04-22T14:17:41;10.15;;;5.78;;
61903;SDS011;47857;52.270;6.804;2023-04-22T14:20:06;8.13;;;5.90;;
61903;SDS011;47857;52.270;6.804;2023-04-22T14:22:32;8.13;;;5.90;;
61903;SDS011;47857;52.270;6.804;2023-04-22T14:24:58;9.60;;;6.03;;
61903;SDS011;47857;52.270;6.804;2023-04-22T14:27:24;9.27;;;6.63;;
61903;SDS011;47857;52.270;6.804;2023-04-22T14:29:51;8.63;;;6.60;;
61903;SDS011;47857;52.270;6.804;2023-04-22T14:32:17;8.10;;;6.60;;
61903;SDS011;47857;52.270;6.804;2023-04-22T14:34:43;10.38;;;7.10;;
61903;SDS011;47857;52.270;6.804;2023-04-22T14:37:09;8.32;;;6.72;;
61903;SDS011;47857;52.270;6.804;2023-04-22T14:39:35;6.93;;;5.45;;
61903;SDS011;47857;52.270;6.804;2023-04-22T14:42:01;6.72;;;5.10;;
61903;SDS011;47857;52.270;6.804;2023-04-22T14:44:27;8.30;;;5.00;;
61903;SDS011;47857;52.270;6.804;2023-04-22T14:46:53;8.32;;;4.97;;
61903;SDS011;47857;52.270;6.804;2023-04-22T14:49:18;9.95;;;4.60;;
61903;SDS011;47857;52.270;6.804;2023-04-22T14:51:44;7.60;;;4.57;;
61903;SDS011;47857;52.270;6.804;2023-04-22T14:54:09;9.15;;;4.53;;
61903;SDS011;47857;52.270;6.804;2023-04-22T14:56:35;10.60;;;4.70;;